createdAt,value
2023-03-21T00:02:11.752Z,10.45
2023-03-21T00:05:05.811Z,11.77
2023-03-21T00:07:54.971Z,11.10
2023-03-21T00:10:42.077Z,11.65
2023-03-21T00:13:33.495Z,10.35
2023-03-21T00:16:26.547Z,9.85
2023-03-21T00:19:20.792Z,9.25
2023-03-21T00:22:08.580Z,10.52
2023-03-21T00:24:55.414Z,11.52
2023-03-21T00:28:01.173Z,9.68
2023-03-21T00:30:46.422Z,9.30
2023-03-21T00:33:32.203Z,9.07
2023-03-21T00:36:17.539Z,9.23
2023-03-21T00:39:04.549Z,9.23
2023-03-21T00:41:52.128Z,8.85
2023-03-21T00:44:37.418Z,9.30
2023-03-21T00:47:25.408Z,8.73
2023-03-21T00:50:11.863Z,10.07
2023-03-21T00:52:57.125Z,9.65
2023-03-21T00:55:43.783Z,9.38
2023-03-21T00:58:29.205Z,9.98
2023-03-21T01:01:15.069Z,9.82
2023-03-21T01:04:13.412Z,10.15
2023-03-21T01:06:58.932Z,8.80
2023-03-21T01:09:44.048Z,9.45
2023-03-21T01:12:29.467Z,9.75
2023-03-21T01:15:14.734Z,10.18
2023-03-21T01:18:00.178Z,9.63
2023-03-21T01:20:46.754Z,9.45
2023-03-21T01:23:32.209Z,10.95
2023-03-21T01:26:17.632Z,10.80
2023-03-21T01:29:04.181Z,11.57
2023-03-21T01:31:49.728Z,11.57
2023-03-21T01:34:35.351Z,12.63
2023-03-21T01:37:20.951Z,12.80
2023-03-21T01:40:12.629Z,12.20
2023-03-21T01:42:59.390Z,12.15
2023-03-21T01:46:30.175Z,11.98
2023-03-21T01:49:49.483Z,12.65
2023-03-21T01:52:41.798Z,12.63
2023-03-21T01:55:31.509Z,12.70
2023-03-21T01:58:34.858Z,11.07
2023-03-21T02:01:42.251Z,12.07
2023-03-21T02:04:30.252Z,12.02
2023-03-21T02:07:44.901Z,10.30
2023-03-21T02:10:36.470Z,11.05
2023-03-21T02:13:23.420Z,10.75
2023-03-21T02:16:11.626Z,11.15
2023-03-21T02:19:20.107Z,10.82
2023-03-21T02:22:37.989Z,10.93
2023-03-21T02:25:41.457Z,11.95
2023-03-21T02:28:38.192Z,10.25
2023-03-21T02:31:37.646Z,10.75
2023-03-21T02:34:41.199Z,12.15
2023-03-21T02:37:38.598Z,10.57
2023-03-21T02:40:36.247Z,10.75
2023-03-21T02:43:41.927Z,13.25
2023-03-21T02:46:49.015Z,13.88
2023-03-21T02:49:45.385Z,14.60
2023-03-21T02:52:39.518Z,13.30
2023-03-21T02:55:30.465Z,13.82
2023-03-21T02:58:22.608Z,13.80
2023-03-21T03:01:13.346Z,14.32
2023-03-21T03:04:28.597Z,14.52
2023-03-21T03:07:37.025Z,13.30
2023-03-21T03:10:52.990Z,13.98
2023-03-21T03:13:41.041Z,15.27
2023-03-21T03:16:45.238Z,14.90
2023-03-21T03:19:44.637Z,15.23
2023-03-21T03:23:09.371Z,17.65
2023-03-21T03:26:04.474Z,16.50
2023-03-21T03:28:55.280Z,17.95
2023-03-21T03:32:18.128Z,17.73
2023-03-21T03:35:05.832Z,21.63
2023-03-21T03:37:56.570Z,17.55
2023-03-21T03:40:46.319Z,19.27
2023-03-21T03:43:50.890Z,18.63
2023-03-21T03:46:46.318Z,16.27
2023-03-21T03:49:39.445Z,17.08
2023-03-21T03:55:22.141Z,19.20
2023-03-21T03:58:21.629Z,19.45
2023-03-21T04:01:07.870Z,17.17
2023-03-21T04:04:06.795Z,18.20
2023-03-21T04:06:58.538Z,18.17
2023-03-21T04:09:45.484Z,18.83
2023-03-21T04:12:34.770Z,17.08
2023-03-21T04:15:37.319Z,14.77
2023-03-21T04:18:29.644Z,15.88
2023-03-21T04:21:15.693Z,16.77
2023-03-21T04:24:01.220Z,17.63
2023-03-21T04:26:46.750Z,16.05
2023-03-21T04:29:51.010Z,15.60
2023-03-21T04:32:56.603Z,15.38
2023-03-21T04:35:45.847Z,16.30
2023-03-21T04:38:33.817Z,16.52
2023-03-21T04:41:21.962Z,15.90
2023-03-21T04:44:09.026Z,16.33
2023-03-21T04:46:55.846Z,14.60
2023-03-21T04:49:40.971Z,15.43
2023-03-21T04:52:29.405Z,13.40
2023-03-21T04:55:16.046Z,13.30
2023-03-21T04:58:04.654Z,12.85
2023-03-21T05:00:53.235Z,12.75
2023-03-21T05:03:40.239Z,13.25
2023-03-21T05:06:26.542Z,12.65
2023-03-21T05:09:13.140Z,13.25
2023-03-21T05:11:58.513Z,12.95
2023-03-21T05:14:44.534Z,12.77
2023-03-21T05:17:30.687Z,14.27
2023-03-21T05:20:17.671Z,13.40
2023-03-21T05:23:03.202Z,14.50
2023-03-21T05:25:48.805Z,12.40
2023-03-21T05:28:40.048Z,11.55
2023-03-21T05:31:25.888Z,12.80
2023-03-21T05:34:22.414Z,10.90
2023-03-21T05:37:07.826Z,10.80
2023-03-21T05:40:09.124Z,10.27
2023-03-21T05:42:57.186Z,11.60
2023-03-21T05:45:43.507Z,10.80
2023-03-21T05:48:29.743Z,10.95
2023-03-21T05:51:27.275Z,12.00
2023-03-21T05:54:16.553Z,11.13
2023-03-21T05:57:05.175Z,9.65
2023-03-21T06:00:12.384Z,10.10
2023-03-21T06:03:17.466Z,9.82
2023-03-21T06:06:16.821Z,9.10
2023-03-21T06:09:11.993Z,8.77
2023-03-21T06:11:59.444Z,9.73
2023-03-21T06:15:01.769Z,10.18
2023-03-21T06:17:54.202Z,9.60
2023-03-21T06:20:39.794Z,9.43
2023-03-21T06:23:28.856Z,9.10
2023-03-21T06:26:14.514Z,9.57
2023-03-21T06:28:59.886Z,9.10
2023-03-21T06:31:46.277Z,9.55
2023-03-21T06:34:32.410Z,10.32
2023-03-21T06:37:18.264Z,9.95
2023-03-21T06:40:05.901Z,9.35
2023-03-21T06:42:51.375Z,13.25
2023-03-21T06:45:37.519Z,10.70
2023-03-21T06:48:23.915Z,10.70
2023-03-21T06:51:11.159Z,10.82
2023-03-21T06:54:00.438Z,10.90
2023-03-21T06:57:08.827Z,11.20
2023-03-21T06:59:55.227Z,12.80
2023-03-21T07:02:42.807Z,10.85
2023-03-21T07:05:36.174Z,10.70
2023-03-21T07:08:22.525Z,10.50
2023-03-21T07:11:09.276Z,10.77
2023-03-21T07:13:54.810Z,10.82
2023-03-21T07:16:41.681Z,11.73
2023-03-21T07:19:27.560Z,12.25
2023-03-21T07:22:13.098Z,13.50
2023-03-21T07:25:04.646Z,11.73
2023-03-21T07:27:56.801Z,11.77
2023-03-21T07:30:42.098Z,11.45
2023-03-21T07:33:28.421Z,11.35
2023-03-21T07:36:17.502Z,9.98
2023-03-21T07:39:05.009Z,9.65
2023-03-21T07:41:50.765Z,10.45
2023-03-21T07:44:47.793Z,10.02
2023-03-21T07:47:33.975Z,9.30
2023-03-21T07:50:19.976Z,9.57
2023-03-21T07:53:05.260Z,8.82
2023-03-21T07:55:52.697Z,9.45
2023-03-21T07:58:37.957Z,8.88
2023-03-21T08:01:23.392Z,9.60
2023-03-21T08:04:08.800Z,9.15
2023-03-21T08:06:54.187Z,9.10
2023-03-21T08:09:39.611Z,8.60
2023-03-21T08:12:25.221Z,8.27
2023-03-21T08:15:11.237Z,9.15
2023-03-21T08:17:58.263Z,7.85
2023-03-21T08:20:43.481Z,6.57
2023-03-21T08:23:29.620Z,7.13
2023-03-21T08:26:18.041Z,6.97
2023-03-21T08:29:03.348Z,8.07
2023-03-21T08:31:48.895Z,7.57
2023-03-21T08:34:33.907Z,8.35
2023-03-21T08:37:19.209Z,8.15
2023-03-21T08:40:11.610Z,8.70
2023-03-21T08:42:57.776Z,9.25
2023-03-21T08:45:43.176Z,8.63
2023-03-21T08:48:28.560Z,9.07
2023-03-21T08:51:14.007Z,8.75
2023-03-21T08:53:59.309Z,8.80
2023-03-21T08:56:44.897Z,8.77
2023-03-21T08:59:30.473Z,8.93
2023-03-21T09:02:17.511Z,7.88
2023-03-21T09:05:05.951Z,8.30
2023-03-21T09:07:52.766Z,8.32
2023-03-21T09:10:38.467Z,7.60
2023-03-21T09:13:24.003Z,6.95
2023-03-21T09:16:09.309Z,6.72
2023-03-21T09:18:56.884Z,6.85
2023-03-21T09:21:42.285Z,7.60
2023-03-21T09:24:27.827Z,6.72
2023-03-21T09:27:15.410Z,6.38
2023-03-21T09:30:00.756Z,6.18
2023-03-21T09:32:48.587Z,5.85
2023-03-21T09:35:34.828Z,5.40
2023-03-21T09:38:20.532Z,5.72
2023-03-21T09:41:09.028Z,5.05
2023-03-21T09:44:15.031Z,4.95
2023-03-21T09:47:13.880Z,6.07
2023-03-21T09:50:17.066Z,5.35
2023-03-21T09:53:25.770Z,4.50
2023-03-21T09:56:15.839Z,4.35
2023-03-21T09:59:03.009Z,4.38
2023-03-21T10:01:49.267Z,3.95
2023-03-21T10:04:37.745Z,4.32
2023-03-21T10:07:23.555Z,4.07
2023-03-21T10:10:22.573Z,4.20
2023-03-21T10:13:16.954Z,5.93
2023-03-21T10:16:13.999Z,4.50
2023-03-21T10:19:02.711Z,4.78
2023-03-21T10:22:05.936Z,4.82
2023-03-21T10:24:51.410Z,4.72
2023-03-21T10:27:37.047Z,4.55
2023-03-21T10:30:32.149Z,4.43
2023-03-21T10:33:26.355Z,4.10
2023-03-21T10:36:13.415Z,4.38
2023-03-21T10:39:11.518Z,5.00
2023-03-21T10:41:57.017Z,4.55
2023-03-21T10:44:48.849Z,6.05
2023-03-21T10:47:35.951Z,6.13
2023-03-21T10:50:25.623Z,5.15
2023-03-21T10:53:34.998Z,6.22
2023-03-21T10:56:26.598Z,5.47
2023-03-21T10:59:20.583Z,5.78
2023-03-21T11:02:14.505Z,5.47
2023-03-21T11:05:06.115Z,5.63
2023-03-21T11:08:01.562Z,5.85
2023-03-21T11:11:03.911Z,4.80
2023-03-21T11:13:58.894Z,5.28
2023-03-21T11:16:44.403Z,5.22
2023-03-21T11:19:33.022Z,6.03
2023-03-21T11:22:22.029Z,5.93
2023-03-21T11:25:12.014Z,6.45
2023-03-21T11:27:57.532Z,6.00
2023-03-21T11:31:09.449Z,5.90
2023-03-21T11:33:56.945Z,6.95
2023-03-21T11:36:42.070Z,6.03
2023-03-21T11:39:33.872Z,6.22
2023-03-21T11:42:26.329Z,5.32
2023-03-21T11:45:32.810Z,8.43
2023-03-21T11:48:18.443Z,6.47
2023-03-21T11:51:13.286Z,7.40
2023-03-21T11:54:27.013Z,6.22
2023-03-21T11:57:41.235Z,6.10
2023-03-21T12:00:39.062Z,5.93
2023-03-21T12:03:47.285Z,6.57
2023-03-21T12:07:03.883Z,6.35
2023-03-21T12:10:26.768Z,6.00
2023-03-21T12:13:24.142Z,6.35
2023-03-21T12:16:28.246Z,5.90
2023-03-21T12:19:47.245Z,6.28
2023-03-21T12:22:54.048Z,6.45
2023-03-21T12:25:46.799Z,6.60
2023-03-21T12:29:03.243Z,6.78
2023-03-21T12:31:57.613Z,7.13
2023-03-21T12:35:19.133Z,6.60
2023-03-21T12:38:16.783Z,8.15
2023-03-21T12:41:16.428Z,7.10
2023-03-21T12:44:09.020Z,7.10
2023-03-21T12:46:59.986Z,6.70
2023-03-21T12:50:03.743Z,6.72
2023-03-21T12:52:58.253Z,6.15
2023-03-21T12:55:44.134Z,7.90
2023-03-21T12:58:32.006Z,8.02
2023-03-21T13:01:21.372Z,7.93
2023-03-21T13:04:39.705Z,6.32
2023-03-21T13:07:26.388Z,6.18
2023-03-21T13:10:17.869Z,5.78
2023-03-21T13:13:38.515Z,6.35
2023-03-21T13:16:35.568Z,5.20
2023-03-21T13:19:32.211Z,5.72
2023-03-21T13:22:27.488Z,4.55
2023-03-21T13:25:20.409Z,4.40
2023-03-21T13:28:06.226Z,4.30
2023-03-21T13:30:52.592Z,3.92
2023-03-21T13:33:44.576Z,3.72
2023-03-21T13:36:31.660Z,3.80
2023-03-21T13:39:26.505Z,3.55
2023-03-21T13:42:29.617Z,3.90
2023-03-21T13:45:44.487Z,4.55
2023-03-21T13:48:32.462Z,4.32
2023-03-21T13:51:37.365Z,3.83
2023-03-21T13:54:34.810Z,4.13
2023-03-21T13:57:30.425Z,3.50
2023-03-21T14:00:21.213Z,3.63
2023-03-21T14:03:08.369Z,4.32
2023-03-21T14:05:53.968Z,3.63
2023-03-21T14:08:44.966Z,3.95
2023-03-21T14:11:33.533Z,3.60
2023-03-21T14:14:22.135Z,4.22
2023-03-21T14:17:28.879Z,4.38
2023-03-21T14:20:31.576Z,4.10
2023-03-21T14:23:17.442Z,5.63
2023-03-21T14:26:03.767Z,6.18
2023-03-21T14:28:51.385Z,7.15
2023-03-21T14:31:38.931Z,5.35
2023-03-21T14:34:26.331Z,5.47
2023-03-21T14:37:11.995Z,6.95
2023-03-21T14:40:00.619Z,5.47
2023-03-21T14:42:48.422Z,5.93
2023-03-21T14:45:37.148Z,4.90
2023-03-21T14:48:34.057Z,5.10
2023-03-21T14:51:19.297Z,5.22
2023-03-21T14:54:05.747Z,6.22
2023-03-21T14:57:00.008Z,7.97
2023-03-21T14:59:50.262Z,6.22
2023-03-21T15:02:38.251Z,6.00
2023-03-21T15:05:29.103Z,6.25
2023-03-21T15:08:20.294Z,6.18
2023-03-21T15:11:12.157Z,6.00
2023-03-21T15:14:01.362Z,5.90
2023-03-21T15:16:47.571Z,5.70
2023-03-21T15:19:39.830Z,6.50
2023-03-21T15:22:31.828Z,6.00
2023-03-21T15:25:21.922Z,5.97
2023-03-21T15:28:07.744Z,6.50
2023-03-21T15:30:54.238Z,6.18
2023-03-21T15:33:40.211Z,5.63
2023-03-21T15:36:29.155Z,5.60
2023-03-21T15:39:16.903Z,5.20
2023-03-21T15:42:06.552Z,4.57
2023-03-21T15:44:54.848Z,5.20
2023-03-21T15:47:43.585Z,6.00
2023-03-21T15:50:33.702Z,5.22
2023-03-21T15:53:19.690Z,4.85
2023-03-21T15:56:09.508Z,4.50
2023-03-21T15:59:00.904Z,4.25
2023-03-21T16:01:48.585Z,4.22
2023-03-21T16:04:54.764Z,4.07
2023-03-21T16:07:46.111Z,3.55
2023-03-21T16:10:34.729Z,3.80
2023-03-21T16:13:19.863Z,3.40
2023-03-21T16:16:05.784Z,2.88
2023-03-21T16:18:52.540Z,2.53
2023-03-21T16:21:41.729Z,2.97
2023-03-21T16:24:27.354Z,2.30
2023-03-21T16:27:12.934Z,2.45
2023-03-21T16:29:58.278Z,1.90
2023-03-21T16:32:43.824Z,2.10
2023-03-21T16:35:29.371Z,1.83
2023-03-21T16:38:14.721Z,1.85
2023-03-21T16:41:04.132Z,1.95
2023-03-21T16:43:50.463Z,1.50
2023-03-21T16:46:36.000Z,1.60
2023-03-21T16:49:26.704Z,2.20
2023-03-21T16:52:13.081Z,2.40
2023-03-21T16:54:58.340Z,2.15
2023-03-21T16:57:44.962Z,2.22
2023-03-21T17:00:31.202Z,2.17
2023-03-21T17:03:21.481Z,2.10
2023-03-21T17:06:07.551Z,2.55
2023-03-21T17:08:54.603Z,2.60
2023-03-21T17:11:41.476Z,2.28
2023-03-21T17:14:27.111Z,2.78
2023-03-21T17:17:13.998Z,3.40
2023-03-21T17:19:59.078Z,3.30
2023-03-21T17:22:44.808Z,3.30
2023-03-21T17:25:30.419Z,2.60
2023-03-21T17:28:16.371Z,2.80
2023-03-21T17:31:01.920Z,2.85
2023-03-21T17:33:47.905Z,3.53
2023-03-21T17:36:35.560Z,3.25
2023-03-21T17:39:24.049Z,2.50
2023-03-21T17:42:18.115Z,3.03
2023-03-21T17:45:03.631Z,2.28
2023-03-21T17:47:50.265Z,2.30
2023-03-21T17:50:37.363Z,2.15
2023-03-21T17:53:22.630Z,2.10
2023-03-21T17:56:17.458Z,1.80
2023-03-21T17:59:05.759Z,2.03
2023-03-21T18:01:50.956Z,1.50
2023-03-21T18:04:36.316Z,1.35
2023-03-21T18:07:42.710Z,1.73
2023-03-21T18:10:27.481Z,1.45
2023-03-21T18:13:12.918Z,1.20
2023-03-21T18:15:59.819Z,1.17
2023-03-21T18:18:46.568Z,1.40
2023-03-21T18:21:33.105Z,1.55
2023-03-21T18:24:18.407Z,1.20
2023-03-21T18:27:04.287Z,1.50
2023-03-21T18:32:54.953Z,1.13
2023-03-21T18:35:40.734Z,1.20
2023-03-21T18:38:27.513Z,1.00
2023-03-21T18:41:14.980Z,1.17
2023-03-21T18:44:06.536Z,0.65
2023-03-21T18:47:03.201Z,1.58
2023-03-21T18:50:12.690Z,1.08
2023-03-21T18:52:55.596Z,1.08
2023-03-21T18:55:46.487Z,1.02
2023-03-21T18:58:33.495Z,1.50
2023-03-21T19:01:18.866Z,1.38
2023-03-21T19:07:10.628Z,1.33
2023-03-21T19:10:16.008Z,1.20
2023-03-21T19:13:02.081Z,1.35
2023-03-21T19:15:49.586Z,1.13
2023-03-21T19:18:56.543Z,1.13
2023-03-21T19:21:41.287Z,1.00
2023-03-21T19:24:28.889Z,1.10
2023-03-21T19:27:14.636Z,0.93
2023-03-21T19:30:13.560Z,1.33
2023-03-21T19:32:59.698Z,1.42
2023-03-21T19:35:46.522Z,1.33
2023-03-21T19:38:31.840Z,1.70
2023-03-21T19:41:18.254Z,1.88
2023-03-21T19:44:05.248Z,1.60
2023-03-21T19:46:51.317Z,1.50
2023-03-21T19:50:27.268Z,1.40
2023-03-21T19:52:46.414Z,1.90
2023-03-21T19:55:31.840Z,1.67
2023-03-21T19:58:21.297Z,1.60
2023-03-21T20:01:09.319Z,1.42
2023-03-21T20:03:54.713Z,1.45
2023-03-21T20:06:40.081Z,1.10
2023-03-21T20:09:50.907Z,1.27
2023-03-21T20:12:32.639Z,1.55
2023-03-21T20:15:21.496Z,1.33
2023-03-21T20:18:07.315Z,1.23
2023-03-21T20:20:53.346Z,1.90
2023-03-21T20:23:39.269Z,2.17
2023-03-21T20:26:24.359Z,1.50
2023-03-21T20:32:15.705Z,1.60
2023-03-21T20:35:13.573Z,1.58
2023-03-21T20:38:02.571Z,1.65
2023-03-21T20:40:48.176Z,1.83
2023-03-21T20:44:20.825Z,1.40
2023-03-21T20:46:40.123Z,1.70
2023-03-21T20:49:25.852Z,1.80
2023-03-21T20:55:16.659Z,1.98
2023-03-21T20:58:03.088Z,1.83
2023-03-21T21:00:50.723Z,2.00
2023-03-21T21:03:40.197Z,2.47
2023-03-21T21:06:26.507Z,2.80
2023-03-21T21:09:12.055Z,3.55
2023-03-21T21:12:06.525Z,3.42
2023-03-21T21:14:52.610Z,3.38
2023-03-21T21:20:44.914Z,4.03
2023-03-21T21:23:29.815Z,4.03
2023-03-21T21:26:15.268Z,4.30
2023-03-21T21:29:01.491Z,4.20
2023-03-21T21:31:51.413Z,3.90
2023-03-21T21:34:37.365Z,4.00
2023-03-21T21:37:23.112Z,3.83
2023-03-21T21:40:13.859Z,3.95
2023-03-21T21:43:03.294Z,3.90
2023-03-21T21:45:49.206Z,3.65
2023-03-21T21:48:34.725Z,3.78
2023-03-21T21:51:26.137Z,3.38
2023-03-21T21:54:18.372Z,3.33
2023-03-21T21:57:04.117Z,3.28
2023-03-21T21:59:54.241Z,3.13
2023-03-21T22:02:40.583Z,2.80
2023-03-21T22:05:26.911Z,2.72
2023-03-21T22:08:12.501Z,3.03
2023-03-21T22:10:59.458Z,2.50
2023-03-21T22:13:45.372Z,2.53
2023-03-21T22:16:31.188Z,2.35
2023-03-21T22:19:16.788Z,2.17
2023-03-21T22:22:02.420Z,2.17
2023-03-21T22:24:50.133Z,2.25
2023-03-21T22:27:35.493Z,1.90
2023-03-21T22:30:21.087Z,2.20
2023-03-21T22:33:09.609Z,2.15
2023-03-21T22:35:55.541Z,1.73
2023-03-21T22:38:41.892Z,2.22
2023-03-21T22:41:27.556Z,1.85
2023-03-21T22:44:13.409Z,1.42
2023-03-21T22:46:58.502Z,1.83
2023-03-21T22:49:47.643Z,1.90
2023-03-21T22:52:32.780Z,1.70
2023-03-21T22:55:18.537Z,1.83
2023-03-21T22:58:04.335Z,2.00
2023-03-21T23:00:49.606Z,1.50
2023-03-21T23:03:35.080Z,1.55
2023-03-21T23:06:20.895Z,1.50
2023-03-21T23:09:06.395Z,1.60
2023-03-21T23:11:51.793Z,1.80
2023-03-21T23:14:37.105Z,1.60
2023-03-21T23:17:22.622Z,1.40
2023-03-21T23:20:08.648Z,1.42
2023-03-21T23:22:54.707Z,1.73
2023-03-21T23:25:42.413Z,1.20
2023-03-21T23:28:27.946Z,1.50
2023-03-21T23:31:16.789Z,1.20
2023-03-21T23:34:03.901Z,1.52
2023-03-21T23:36:49.425Z,1.80
2023-03-21T23:39:34.985Z,1.25
2023-03-21T23:42:20.194Z,1.60
2023-03-21T23:45:06.570Z,1.15
2023-03-21T23:47:51.811Z,1.30
2023-03-21T23:50:37.568Z,1.65
2023-03-21T23:53:24.044Z,1.05
2023-03-21T23:56:21.589Z,1.25
2023-03-21T23:59:07.326Z,1.33
